sensor_id;sensor_type;location;lat;lon;timestamp;temperature;humidity
7046;DHT22;3564;53.326;10.356;2022-09-03T00:01:05;19.20;78.90
7046;DHT22;3564;53.326;10.356;2022-09-03T00:03:50;19.10;78.70
7046;DHT22;3564;53.326;10.356;2022-09-03T00:14:24;19.00;78.40
7046;DHT22;3564;53.326;10.356;2022-09-03T00:17:04;19.00;78.70
7046;DHT22;3564;53.326;10.356;2022-09-03T00:19:46;19.00;78.40
7046;DHT22;3564;53.326;10.356;2022-09-03T00:22:24;18.90;78.70
7046;DHT22;3564;53.326;10.356;2022-09-03T00:25:02;18.90;79.00
7046;DHT22;3564;53.326;10.356;2022-09-03T00:27:32;18.90;79.30
7046;DHT22;3564;53.326;10.356;2022-09-03T00:30:19;18.80;79.60
7046;DHT22;3564;53.326;10.356;2022-09-03T00:32:58;18.80;79.20
7046;DHT22;3564;53.326;10.356;2022-09-03T00:35:31;18.80;78.70
7046;DHT22;3564;53.326;10.356;2022-09-03T00:38:00;18.80;78.70
7046;DHT22;3564;53.326;10.356;2022-09-03T00:40:48;18.80;78.70
7046;DHT22;3564;53.326;10.356;2022-09-03T00:48:29;18.90;78.50
7046;DHT22;3564;53.326;10.356;2022-09-03T00:56:16;18.90;78.40
7046;DHT22;3564;53.326;10.356;2022-09-03T01:01:27;18.90;78.40
7046;DHT22;3564;53.326;10.356;2022-09-03T01:14:46;18.90;78.20
7046;DHT22;3564;53.326;10.356;2022-09-03T01:30:22;18.80;78.50
7046;DHT22;3564;53.326;10.356;2022-09-03T01:35:56;18.80;78.70
7046;DHT22;3564;53.326;10.356;2022-09-03T01:46:38;18.70;78.30
7046;DHT22;3564;53.326;10.356;2022-09-03T01:52:13;18.60;79.30
7046;DHT22;3564;53.326;10.356;2022-09-03T01:57:41;18.60;79.20
7046;DHT22;3564;53.326;10.356;2022-09-03T02:00:16;18.50;79.50
7046;DHT22;3564;53.326;10.356;2022-09-03T02:02:45;18.40;79.40
7046;DHT22;3564;53.326;10.356;2022-09-03T02:08:08;18.40;79.20
7046;DHT22;3564;53.326;10.356;2022-09-03T02:10:54;18.40;79.40
7046;DHT22;3564;53.326;10.356;2022-09-03T02:15:57;18.20;80.00
7046;DHT22;3564;53.326;10.356;2022-09-03T02:18:27;18.10;80.20
7046;DHT22;3564;53.326;10.356;2022-09-03T02:20:56;18.00;80.20
7046;DHT22;3564;53.326;10.356;2022-09-03T02:23:25;17.90;80.60
7046;DHT22;3564;53.326;10.356;2022-09-03T02:25:56;17.90;80.70
7046;DHT22;3564;53.326;10.356;2022-09-03T02:28:22;17.70;80.60
7046;DHT22;3564;53.326;10.356;2022-09-03T02:30:48;17.70;80.50
7046;DHT22;3564;53.326;10.356;2022-09-03T02:33:14;17.70;80.70
7046;DHT22;3564;53.326;10.356;2022-09-03T02:35:40;17.70;80.60
7046;DHT22;3564;53.326;10.356;2022-09-03T02:40:39;17.70;81.00
7046;DHT22;3564;53.326;10.356;2022-09-03T02:43:08;17.60;81.00
7046;DHT22;3564;53.326;10.356;2022-09-03T02:45:36;17.50;81.70
7046;DHT22;3564;53.326;10.356;2022-09-03T02:48:09;17.60;81.70
7046;DHT22;3564;53.326;10.356;2022-09-03T02:50:42;17.60;81.40
7046;DHT22;3564;53.326;10.356;2022-09-03T02:53:08;17.50;81.50
7046;DHT22;3564;53.326;10.356;2022-09-03T02:55:34;17.50;81.30
7046;DHT22;3564;53.326;10.356;2022-09-03T02:57:59;17.50;81.40
7046;DHT22;3564;53.326;10.356;2022-09-03T03:00:26;17.50;81.50
7046;DHT22;3564;53.326;10.356;2022-09-03T03:02:54;17.40;81.70
7046;DHT22;3564;53.326;10.356;2022-09-03T03:05:50;17.40;81.90
7046;DHT22;3564;53.326;10.356;2022-09-03T03:08:18;17.40;82.10
7046;DHT22;3564;53.326;10.356;2022-09-03T03:10:46;17.40;82.10
7046;DHT22;3564;53.326;10.356;2022-09-03T03:13:14;17.30;82.10
7046;DHT22;3564;53.326;10.356;2022-09-03T03:15:41;17.30;82.10
7046;DHT22;3564;53.326;10.356;2022-09-03T03:18:06;17.30;82.10
7046;DHT22;3564;53.326;10.356;2022-09-03T03:20:36;17.30;82.40
7046;DHT22;3564;53.326;10.356;2022-09-03T03:23:02;17.30;82.40
7046;DHT22;3564;53.326;10.356;2022-09-03T03:25:31;17.30;82.50
7046;DHT22;3564;53.326;10.356;2022-09-03T03:27:57;17.20;82.70
7046;DHT22;3564;53.326;10.356;2022-09-03T03:30:22;17.20;82.60
7046;DHT22;3564;53.326;10.356;2022-09-03T03:32:48;17.20;82.80
7046;DHT22;3564;53.326;10.356;2022-09-03T03:35:14;17.20;82.70
7046;DHT22;3564;53.326;10.356;2022-09-03T03:37:40;17.20;82.90
7046;DHT22;3564;53.326;10.356;2022-09-03T03:40:06;17.20;82.60
7046;DHT22;3564;53.326;10.356;2022-09-03T03:42:33;17.20;82.70
7046;DHT22;3564;53.326;10.356;2022-09-03T03:44:59;17.20;82.90
7046;DHT22;3564;53.326;10.356;2022-09-03T03:47:27;17.20;82.90
7046;DHT22;3564;53.326;10.356;2022-09-03T03:49:55;17.10;82.50
7046;DHT22;3564;53.326;10.356;2022-09-03T03:52:22;17.10;82.70
7046;DHT22;3564;53.326;10.356;2022-09-03T03:54:48;17.00;83.10
7046;DHT22;3564;53.326;10.356;2022-09-03T03:57:15;17.10;82.90
7046;DHT22;3564;53.326;10.356;2022-09-03T03:59:40;17.00;82.80
7046;DHT22;3564;53.326;10.356;2022-09-03T04:02:06;17.00;83.10
7046;DHT22;3564;53.326;10.356;2022-09-03T04:04:32;17.00;83.10
7046;DHT22;3564;53.326;10.356;2022-09-03T04:06:57;17.00;83.00
7046;DHT22;3564;53.326;10.356;2022-09-03T04:09:23;17.00;83.20
7046;DHT22;3564;53.326;10.356;2022-09-03T04:11:50;16.90;83.00
7046;DHT22;3564;53.326;10.356;2022-09-03T04:14:15;16.90;83.00
7046;DHT22;3564;53.326;10.356;2022-09-03T04:16:42;16.90;83.20
7046;DHT22;3564;53.326;10.356;2022-09-03T04:19:11;16.80;83.70
7046;DHT22;3564;53.326;10.356;2022-09-03T04:21:37;16.70;83.80
7046;DHT22;3564;53.326;10.356;2022-09-03T04:24:04;16.70;83.80
7046;DHT22;3564;53.326;10.356;2022-09-03T04:26:31;16.60;83.90
7046;DHT22;3564;53.326;10.356;2022-09-03T04:29:08;16.50;84.00
7046;DHT22;3564;53.326;10.356;2022-09-03T04:31:35;16.50;84.50
7046;DHT22;3564;53.326;10.356;2022-09-03T04:34:01;16.40;84.40
7046;DHT22;3564;53.326;10.356;2022-09-03T04:36:29;16.50;84.30
7046;DHT22;3564;53.326;10.356;2022-09-03T04:38:57;16.40;84.20
7046;DHT22;3564;53.326;10.356;2022-09-03T04:41:28;16.40;84.60
7046;DHT22;3564;53.326;10.356;2022-09-03T04:43:57;16.30;84.70
7046;DHT22;3564;53.326;10.356;2022-09-03T04:46:25;16.30;84.80
7046;DHT22;3564;53.326;10.356;2022-09-03T04:48:54;16.30;84.90
7046;DHT22;3564;53.326;10.356;2022-09-03T04:51:23;16.20;85.20
7046;DHT22;3564;53.326;10.356;2022-09-03T04:53:57;16.20;85.40
7046;DHT22;3564;53.326;10.356;2022-09-03T04:56:25;16.10;85.10
7046;DHT22;3564;53.326;10.356;2022-09-03T04:58:57;16.20;85.50
7046;DHT22;3564;53.326;10.356;2022-09-03T05:01:28;16.20;85.60
7046;DHT22;3564;53.326;10.356;2022-09-03T05:03:58;16.20;85.60
7046;DHT22;3564;53.326;10.356;2022-09-03T05:06:28;16.20;85.50
7046;DHT22;3564;53.326;10.356;2022-09-03T05:08:55;16.20;85.70
7046;DHT22;3564;53.326;10.356;2022-09-03T05:11:21;16.20;85.80
7046;DHT22;3564;53.326;10.356;2022-09-03T05:13:48;16.30;85.50
7046;DHT22;3564;53.326;10.356;2022-09-03T05:16:15;16.30;85.80
7046;DHT22;3564;53.326;10.356;2022-09-03T05:18:40;16.20;86.10
7046;DHT22;3564;53.326;10.356;2022-09-03T05:21:12;16.20;86.20
7046;DHT22;3564;53.326;10.356;2022-09-03T05:23:43;16.10;86.40
7046;DHT22;3564;53.326;10.356;2022-09-03T05:26:15;16.20;86.70
7046;DHT22;3564;53.326;10.356;2022-09-03T05:28:42;16.20;86.60
7046;DHT22;3564;53.326;10.356;2022-09-03T05:31:12;16.20;86.50
7046;DHT22;3564;53.326;10.356;2022-09-03T05:33:50;16.20;86.20
7046;DHT22;3564;53.326;10.356;2022-09-03T05:36:21;16.30;86.30
7046;DHT22;3564;53.326;10.356;2022-09-03T05:38:50;16.30;85.70
7046;DHT22;3564;53.326;10.356;2022-09-03T05:41:18;16.40;85.80
7046;DHT22;3564;53.326;10.356;2022-09-03T05:43:47;16.50;85.70
7046;DHT22;3564;53.326;10.356;2022-09-03T05:46:17;16.60;85.70
7046;DHT22;3564;53.326;10.356;2022-09-03T05:48:43;16.60;85.50
7046;DHT22;3564;53.326;10.356;2022-09-03T05:51:11;16.70;85.60
7046;DHT22;3564;53.326;10.356;2022-09-03T05:53:40;16.70;85.30
7046;DHT22;3564;53.326;10.356;2022-09-03T05:56:11;16.80;85.50
7046;DHT22;3564;53.326;10.356;2022-09-03T05:58:41;16.80;85.00
7046;DHT22;3564;53.326;10.356;2022-09-03T06:01:13;16.80;84.70
7046;DHT22;3564;53.326;10.356;2022-09-03T06:03:40;16.90;84.60
7046;DHT22;3564;53.326;10.356;2022-09-03T06:06:06;16.90;84.60
7046;DHT22;3564;53.326;10.356;2022-09-03T06:08:33;17.00;84.70
7046;DHT22;3564;53.326;10.356;2022-09-03T06:10:59;17.10;84.30
7046;DHT22;3564;53.326;10.356;2022-09-03T06:13:25;17.10;83.80
7046;DHT22;3564;53.326;10.356;2022-09-03T06:15:56;17.20;83.60
7046;DHT22;3564;53.326;10.356;2022-09-03T06:18:25;17.20;83.50
7046;DHT22;3564;53.326;10.356;2022-09-03T06:20:59;17.20;83.70
7046;DHT22;3564;53.326;10.356;2022-09-03T06:23:33;17.30;83.80
7046;DHT22;3564;53.326;10.356;2022-09-03T06:26:10;17.40;83.60
7046;DHT22;3564;53.326;10.356;2022-09-03T06:28:38;17.40;83.50
7046;DHT22;3564;53.326;10.356;2022-09-03T06:31:08;17.40;83.60
7046;DHT22;3564;53.326;10.356;2022-09-03T06:33:37;17.50;83.50
7046;DHT22;3564;53.326;10.356;2022-09-03T06:36:05;17.50;83.40
7046;DHT22;3564;53.326;10.356;2022-09-03T06:38:32;17.60;83.60
7046;DHT22;3564;53.326;10.356;2022-09-03T06:41:02;17.60;83.20
7046;DHT22;3564;53.326;10.356;2022-09-03T06:43:30;17.70;83.40
7046;DHT22;3564;53.326;10.356;2022-09-03T06:46:03;17.70;83.00
7046;DHT22;3564;53.326;10.356;2022-09-03T06:48:31;17.70;82.90
7046;DHT22;3564;53.326;10.356;2022-09-03T06:51:02;17.80;83.20
7046;DHT22;3564;53.326;10.356;2022-09-03T06:53:30;17.80;83.20
7046;DHT22;3564;53.326;10.356;2022-09-03T06:56:00;17.90;83.30
7046;DHT22;3564;53.326;10.356;2022-09-03T06:58:35;17.90;83.20
7046;DHT22;3564;53.326;10.356;2022-09-03T07:01:07;18.00;83.10
7046;DHT22;3564;53.326;10.356;2022-09-03T07:03:34;18.10;83.10
7046;DHT22;3564;53.326;10.356;2022-09-03T07:06:07;18.10;82.90
7046;DHT22;3564;53.326;10.356;2022-09-03T07:08:34;18.10;82.40
7046;DHT22;3564;53.326;10.356;2022-09-03T07:11:04;18.20;82.30
7046;DHT22;3564;53.326;10.356;2022-09-03T07:13:42;18.30;82.40
7046;DHT22;3564;53.326;10.356;2022-09-03T07:16:11;18.20;82.60
7046;DHT22;3564;53.326;10.356;2022-09-03T07:18:37;18.30;82.70
7046;DHT22;3564;53.326;10.356;2022-09-03T07:21:06;18.30;82.60
7046;DHT22;3564;53.326;10.356;2022-09-03T07:23:32;18.40;82.60
7046;DHT22;3564;53.326;10.356;2022-09-03T07:26:01;18.40;82.60
7046;DHT22;3564;53.326;10.356;2022-09-03T07:28:28;18.50;82.80
7046;DHT22;3564;53.326;10.356;2022-09-03T07:30:59;18.60;82.60
7046;DHT22;3564;53.326;10.356;2022-09-03T07:33:25;18.60;82.40
7046;DHT22;3564;53.326;10.356;2022-09-03T07:35:52;18.70;82.30
7046;DHT22;3564;53.326;10.356;2022-09-03T07:38:18;18.70;82.40
7046;DHT22;3564;53.326;10.356;2022-09-03T07:40:47;18.80;82.30
7046;DHT22;3564;53.326;10.356;2022-09-03T07:43:13;18.90;82.10
7046;DHT22;3564;53.326;10.356;2022-09-03T07:45:39;18.90;82.30
7046;DHT22;3564;53.326;10.356;2022-09-03T07:48:04;19.00;83.00
7046;DHT22;3564;53.326;10.356;2022-09-03T07:50:30;19.10;82.30
7046;DHT22;3564;53.326;10.356;2022-09-03T07:53:02;19.10;82.00
7046;DHT22;3564;53.326;10.356;2022-09-03T07:55:27;19.20;81.70
7046;DHT22;3564;53.326;10.356;2022-09-03T07:57:56;19.30;81.80
7046;DHT22;3564;53.326;10.356;2022-09-03T08:00:24;19.40;81.80
7046;DHT22;3564;53.326;10.356;2022-09-03T08:02:51;19.40;81.50
7046;DHT22;3564;53.326;10.356;2022-09-03T08:05:17;19.50;81.40
7046;DHT22;3564;53.326;10.356;2022-09-03T08:07:45;19.50;81.30
7046;DHT22;3564;53.326;10.356;2022-09-03T08:10:11;19.50;81.20
7046;DHT22;3564;53.326;10.356;2022-09-03T08:12:37;19.60;81.10
7046;DHT22;3564;53.326;10.356;2022-09-03T08:15:03;19.70;81.20
7046;DHT22;3564;53.326;10.356;2022-09-03T08:17:29;19.70;81.30
7046;DHT22;3564;53.326;10.356;2022-09-03T08:19:55;19.70;81.40
7046;DHT22;3564;53.326;10.356;2022-09-03T08:22:21;19.80;81.80
7046;DHT22;3564;53.326;10.356;2022-09-03T08:24:50;19.80;81.80
7046;DHT22;3564;53.326;10.356;2022-09-03T08:27:15;19.90;81.30
7046;DHT22;3564;53.326;10.356;2022-09-03T08:29:42;20.00;81.00
7046;DHT22;3564;53.326;10.356;2022-09-03T08:32:07;20.00;81.10
7046;DHT22;3564;53.326;10.356;2022-09-03T08:34:33;20.10;81.10
7046;DHT22;3564;53.326;10.356;2022-09-03T08:36:59;20.10;80.90
7046;DHT22;3564;53.326;10.356;2022-09-03T08:39:25;20.20;80.70
7046;DHT22;3564;53.326;10.356;2022-09-03T08:44:57;20.40;80.70
7046;DHT22;3564;53.326;10.356;2022-09-03T08:47:33;20.50;80.60
7046;DHT22;3564;53.326;10.356;2022-09-03T08:50:28;20.50;80.50
7046;DHT22;3564;53.326;10.356;2022-09-03T08:58:13;20.80;80.10
7046;DHT22;3564;53.326;10.356;2022-09-03T09:01:11;20.90;80.00
7046;DHT22;3564;53.326;10.356;2022-09-03T09:03:52;21.00;79.50
7046;DHT22;3564;53.326;10.356;2022-09-03T09:13:05;21.30;79.60
7046;DHT22;3564;53.326;10.356;2022-09-03T09:18:20;21.50;78.80
7046;DHT22;3564;53.326;10.356;2022-09-03T09:20:49;21.50;78.10
7046;DHT22;3564;53.326;10.356;2022-09-03T09:23:36;21.60;77.90
7046;DHT22;3564;53.326;10.356;2022-09-03T09:26:08;21.70;78.00
7046;DHT22;3564;53.326;10.356;2022-09-03T09:28:37;21.80;77.90
7046;DHT22;3564;53.326;10.356;2022-09-03T09:31:22;21.90;77.80
7046;DHT22;3564;53.326;10.356;2022-09-03T09:33:48;22.10;77.80
7046;DHT22;3564;53.326;10.356;2022-09-03T09:36:16;22.20;77.40
7046;DHT22;3564;53.326;10.356;2022-09-03T09:38:45;22.30;77.10
7046;DHT22;3564;53.326;10.356;2022-09-03T09:41:18;22.40;77.00
7046;DHT22;3564;53.326;10.356;2022-09-03T09:44:04;22.50;76.60
7046;DHT22;3564;53.326;10.356;2022-09-03T09:46:37;22.60;76.50
7046;DHT22;3564;53.326;10.356;2022-09-03T09:49:28;22.70;75.60
7046;DHT22;3564;53.326;10.356;2022-09-03T09:52:02;22.80;75.50
7046;DHT22;3564;53.326;10.356;2022-09-03T09:54:28;22.90;73.90
7046;DHT22;3564;53.326;10.356;2022-09-03T09:57:02;23.00;73.20
7046;DHT22;3564;53.326;10.356;2022-09-03T09:59:49;23.10;73.40
7046;DHT22;3564;53.326;10.356;2022-09-03T10:02:25;23.20;72.60
7046;DHT22;3564;53.326;10.356;2022-09-03T10:05:24;23.30;72.80
7046;DHT22;3564;53.326;10.356;2022-09-03T10:08:04;23.40;72.50
7046;DHT22;3564;53.326;10.356;2022-09-03T10:10:43;23.60;72.30
7046;DHT22;3564;53.326;10.356;2022-09-03T10:13:17;23.70;71.90
7046;DHT22;3564;53.326;10.356;2022-09-03T10:16:14;23.80;71.60
7046;DHT22;3564;53.326;10.356;2022-09-03T10:21:12;24.00;69.70
7046;DHT22;3564;53.326;10.356;2022-09-03T10:23:56;24.00;69.40
7046;DHT22;3564;53.326;10.356;2022-09-03T10:26:24;24.10;69.30
7046;DHT22;3564;53.326;10.356;2022-09-03T10:29:01;24.20;68.00
7046;DHT22;3564;53.326;10.356;2022-09-03T10:43:36;24.60;65.20
7046;DHT22;3564;53.326;10.356;2022-09-03T10:46:16;24.70;66.20
7046;DHT22;3564;53.326;10.356;2022-09-03T10:59:53;25.00;63.80
7046;DHT22;3564;53.326;10.356;2022-09-03T11:05:34;25.10;63.80
7046;DHT22;3564;53.326;10.356;2022-09-03T11:08:10;25.10;64.20
7046;DHT22;3564;53.326;10.356;2022-09-03T11:10:42;25.20;64.70
7046;DHT22;3564;53.326;10.356;2022-09-03T11:16:16;25.20;63.40
7046;DHT22;3564;53.326;10.356;2022-09-03T11:19:02;25.20;63.50
7046;DHT22;3564;53.326;10.356;2022-09-03T11:21:30;25.10;63.20
7046;DHT22;3564;53.326;10.356;2022-09-03T11:24:04;25.10;63.70
7046;DHT22;3564;53.326;10.356;2022-09-03T11:26:33;25.20;63.10
7046;DHT22;3564;53.326;10.356;2022-09-03T11:29:14;25.20;62.40
7046;DHT22;3564;53.326;10.356;2022-09-03T11:32:00;25.20;62.00
7046;DHT22;3564;53.326;10.356;2022-09-03T11:34:29;25.20;63.30
7046;DHT22;3564;53.326;10.356;2022-09-03T11:37:18;25.20;63.60
7046;DHT22;3564;53.326;10.356;2022-09-03T11:39:51;25.20;63.40
7046;DHT22;3564;53.326;10.356;2022-09-03T11:42:40;25.30;62.90
7046;DHT22;3564;53.326;10.356;2022-09-03T11:47:53;25.50;62.30
7046;DHT22;3564;53.326;10.356;2022-09-03T11:53:08;25.50;60.60
7046;DHT22;3564;53.326;10.356;2022-09-03T11:55:46;25.50;61.20
7046;DHT22;3564;53.326;10.356;2022-09-03T11:58:34;25.50;60.10
7046;DHT22;3564;53.326;10.356;2022-09-03T12:01:02;25.50;60.00
7046;DHT22;3564;53.326;10.356;2022-09-03T12:06:48;25.60;61.30
7046;DHT22;3564;53.326;10.356;2022-09-03T12:13:15;25.60;61.20
7046;DHT22;3564;53.326;10.356;2022-09-03T12:18:46;25.60;60.10
7046;DHT22;3564;53.326;10.356;2022-09-03T12:21:16;25.60;60.00
7046;DHT22;3564;53.326;10.356;2022-09-03T12:28:43;25.60;59.10
7046;DHT22;3564;53.326;10.356;2022-09-03T12:31:30;25.50;58.50
7046;DHT22;3564;53.326;10.356;2022-09-03T12:36:38;25.40;59.60
7046;DHT22;3564;53.326;10.356;2022-09-03T12:39:30;25.40;59.10
7046;DHT22;3564;53.326;10.356;2022-09-03T12:42:27;25.40;59.20
7046;DHT22;3564;53.326;10.356;2022-09-03T12:45:40;25.50;59.00
7046;DHT22;3564;53.326;10.356;2022-09-03T12:48:12;25.50;59.30
7046;DHT22;3564;53.326;10.356;2022-09-03T12:50:39;25.50;59.10
7046;DHT22;3564;53.326;10.356;2022-09-03T12:53:05;25.50;59.00
7046;DHT22;3564;53.326;10.356;2022-09-03T12:55:53;25.40;58.60
7046;DHT22;3564;53.326;10.356;2022-09-03T12:58:22;25.40;59.40
7046;DHT22;3564;53.326;10.356;2022-09-03T13:01:11;25.40;59.20
7046;DHT22;3564;53.326;10.356;2022-09-03T13:07:21;25.40;58.60
7046;DHT22;3564;53.326;10.356;2022-09-03T13:09:28;25.40;58.30
7046;DHT22;3564;53.326;10.356;2022-09-03T13:11:55;25.40;58.30
7046;DHT22;3564;53.326;10.356;2022-09-03T13:14:25;25.40;58.50
7046;DHT22;3564;53.326;10.356;2022-09-03T13:17:03;25.30;58.90
7046;DHT22;3564;53.326;10.356;2022-09-03T13:19:54;25.30;58.90
7046;DHT22;3564;53.326;10.356;2022-09-03T13:30:56;25.40;58.60
7046;DHT22;3564;53.326;10.356;2022-09-03T13:33:27;25.40;59.20
7046;DHT22;3564;53.326;10.356;2022-09-03T13:36:20;25.50;59.60
7046;DHT22;3564;53.326;10.356;2022-09-03T13:39:04;25.50;58.40
7046;DHT22;3564;53.326;10.356;2022-09-03T13:41:42;25.50;59.10
7046;DHT22;3564;53.326;10.356;2022-09-03T13:44:19;25.60;58.00
7046;DHT22;3564;53.326;10.356;2022-09-03T13:46:59;25.60;57.80
7046;DHT22;3564;53.326;10.356;2022-09-03T13:49:53;25.60;58.00
7046;DHT22;3564;53.326;10.356;2022-09-03T13:56:01;25.70;58.50
7046;DHT22;3564;53.326;10.356;2022-09-03T13:59:23;25.60;58.00
7046;DHT22;3564;53.326;10.356;2022-09-03T14:04:27;25.50;58.80
7046;DHT22;3564;53.326;10.356;2022-09-03T14:07:02;25.50;58.30
7046;DHT22;3564;53.326;10.356;2022-09-03T14:09:50;25.50;58.60
7046;DHT22;3564;53.326;10.356;2022-09-03T14:17:40;25.50;59.40
7046;DHT22;3564;53.326;10.356;2022-09-03T14:20:18;25.60;59.20
7046;DHT22;3564;53.326;10.356;2022-09-03T14:25:29;25.80;58.50
7046;DHT22;3564;53.326;10.356;2022-09-03T14:28:14;25.80;59.30
7046;DHT22;3564;53.326;10.356;2022-09-03T14:30:57;25.90;58.10
7046;DHT22;3564;53.326;10.356;2022-09-03T14:36:37;26.00;58.70
7046;DHT22;3564;53.326;10.356;2022-09-03T14:39:47;26.10;58.30
7046;DHT22;3564;53.326;10.356;2022-09-03T14:56:36;26.70;58.20
7046;DHT22;3564;53.326;10.356;2022-09-03T15:01:46;27.60;55.90
7046;DHT22;3564;53.326;10.356;2022-09-03T15:04:24;28.00;55.80
7046;DHT22;3564;53.326;10.356;2022-09-03T15:07:15;29.00;55.50
7046;DHT22;3564;53.326;10.356;2022-09-03T15:10:14;30.50;53.40
7046;DHT22;3564;53.326;10.356;2022-09-03T15:20:50;33.30;48.50
7046;DHT22;3564;53.326;10.356;2022-09-03T15:23:41;33.10;48.10
7046;DHT22;3564;53.326;10.356;2022-09-03T15:32:20;31.60;49.30
7046;DHT22;3564;53.326;10.356;2022-09-03T15:34:53;32.10;49.60
7046;DHT22;3564;53.326;10.356;2022-09-03T15:37:27;32.90;48.90
7046;DHT22;3564;53.326;10.356;2022-09-03T15:40:22;33.80;48.10
7046;DHT22;3564;53.326;10.356;2022-09-03T15:43:08;34.50;48.10
7046;DHT22;3564;53.326;10.356;2022-09-03T15:45:51;35.30;46.70
7046;DHT22;3564;53.326;10.356;2022-09-03T15:48:47;36.00;46.20
7046;DHT22;3564;53.326;10.356;2022-09-03T15:51:29;36.40;45.30
7046;DHT22;3564;53.326;10.356;2022-09-03T15:54:01;36.80;44.70
7046;DHT22;3564;53.326;10.356;2022-09-03T15:56:38;37.10;44.60
7046;DHT22;3564;53.326;10.356;2022-09-03T16:02:12;37.80;43.10
7046;DHT22;3564;53.326;10.356;2022-09-03T16:09:55;38.90;56.80
7046;DHT22;3564;53.326;10.356;2022-09-03T16:16:02;38.60;52.40
7046;DHT22;3564;53.326;10.356;2022-09-03T16:18:37;38.30;51.10
7046;DHT22;3564;53.326;10.356;2022-09-03T16:24:21;37.20;50.20
7046;DHT22;3564;53.326;10.356;2022-09-03T16:26:53;36.30;50.60
7046;DHT22;3564;53.326;10.356;2022-09-03T16:29:26;35.40;50.80
7046;DHT22;3564;53.326;10.356;2022-09-03T16:37:32;33.00;52.60
7046;DHT22;3564;53.326;10.356;2022-09-03T16:42:33;31.50;54.00
7046;DHT22;3564;53.326;10.356;2022-09-03T16:45:16;31.00;54.80
7046;DHT22;3564;53.326;10.356;2022-09-03T17:05:12;28.20;50.20
7046;DHT22;3564;53.326;10.356;2022-09-03T17:07:51;28.00;50.40
7046;DHT22;3564;53.326;10.356;2022-09-03T17:13:27;27.50;51.30
7046;DHT22;3564;53.326;10.356;2022-09-03T17:18:52;27.10;52.30
7046;DHT22;3564;53.326;10.356;2022-09-03T17:21:47;26.90;52.80
7046;DHT22;3564;53.326;10.356;2022-09-03T17:24:34;26.70;53.40
7046;DHT22;3564;53.326;10.356;2022-09-03T17:27:30;26.50;53.10
7046;DHT22;3564;53.326;10.356;2022-09-03T17:32:45;26.30;53.80
7046;DHT22;3564;53.326;10.356;2022-09-03T17:35:45;26.20;54.00
7046;DHT22;3564;53.326;10.356;2022-09-03T17:41:41;25.90;55.00
7046;DHT22;3564;53.326;10.356;2022-09-03T17:44:40;25.70;55.20
7046;DHT22;3564;53.326;10.356;2022-09-03T17:50:25;25.40;56.30
7046;DHT22;3564;53.326;10.356;2022-09-03T17:53:00;25.30;56.20
7046;DHT22;3564;53.326;10.356;2022-09-03T17:55:37;25.20;56.90
7046;DHT22;3564;53.326;10.356;2022-09-03T18:03:59;24.90;57.10
7046;DHT22;3564;53.326;10.356;2022-09-03T18:06:31;24.80;56.90
7046;DHT22;3564;53.326;10.356;2022-09-03T18:09:11;24.70;58.10
7046;DHT22;3564;53.326;10.356;2022-09-03T18:11:49;24.60;57.60
7046;DHT22;3564;53.326;10.356;2022-09-03T18:14:37;24.50;58.20
7046;DHT22;3564;53.326;10.356;2022-09-03T18:17:34;24.40;58.50
7046;DHT22;3564;53.326;10.356;2022-09-03T18:20:05;24.30;58.40
7046;DHT22;3564;53.326;10.356;2022-09-03T18:23:18;24.20;59.00
7046;DHT22;3564;53.326;10.356;2022-09-03T18:26:12;24.10;58.70
7046;DHT22;3564;53.326;10.356;2022-09-03T18:29:06;24.00;59.20
7046;DHT22;3564;53.326;10.356;2022-09-03T18:31:52;23.90;59.40
7046;DHT22;3564;53.326;10.356;2022-09-03T18:34:36;23.90;59.40
7046;DHT22;3564;53.326;10.356;2022-09-03T18:37:24;23.80;59.10
7046;DHT22;3564;53.326;10.356;2022-09-03T18:40:21;23.60;58.80
7046;DHT22;3564;53.326;10.356;2022-09-03T18:49:34;23.30;60.10
7046;DHT22;3564;53.326;10.356;2022-09-03T18:52:28;23.30;60.00
7046;DHT22;3564;53.326;10.356;2022-09-03T19:01:39;23.00;60.60
7046;DHT22;3564;53.326;10.356;2022-09-03T19:10:37;22.90;61.20
7046;DHT22;3564;53.326;10.356;2022-09-03T19:13:31;22.80;61.00
7046;DHT22;3564;53.326;10.356;2022-09-03T19:17:00;22.80;61.50
7046;DHT22;3564;53.326;10.356;2022-09-03T19:22:57;22.60;61.40
7046;DHT22;3564;53.326;10.356;2022-09-03T19:25:41;22.50;61.20
7046;DHT22;3564;53.326;10.356;2022-09-03T19:28:29;22.50;61.80
7046;DHT22;3564;53.326;10.356;2022-09-03T19:44:07;22.20;61.50
7046;DHT22;3564;53.326;10.356;2022-09-03T19:46:58;22.10;62.20
7046;DHT22;3564;53.326;10.356;2022-09-03T19:50:04;22.00;62.00
7046;DHT22;3564;53.326;10.356;2022-09-03T19:52:57;22.00;62.10
7046;DHT22;3564;53.326;10.356;2022-09-03T19:55:50;21.90;62.20
7046;DHT22;3564;53.326;10.356;2022-09-03T19:58:39;21.90;62.40
7046;DHT22;3564;53.326;10.356;2022-09-03T20:01:30;21.80;62.40
7046;DHT22;3564;53.326;10.356;2022-09-03T20:04:16;21.80;62.60
7046;DHT22;3564;53.326;10.356;2022-09-03T20:07:02;21.70;62.60
7046;DHT22;3564;53.326;10.356;2022-09-03T20:09:48;21.70;62.90
7046;DHT22;3564;53.326;10.356;2022-09-03T20:12:37;21.60;62.80
7046;DHT22;3564;53.326;10.356;2022-09-03T20:15:08;21.60;63.10
7046;DHT22;3564;53.326;10.356;2022-09-03T20:22:54;21.50;63.40
7046;DHT22;3564;53.326;10.356;2022-09-03T20:28:28;21.40;63.60
7046;DHT22;3564;53.326;10.356;2022-09-03T20:31:07;21.30;63.50
7046;DHT22;3564;53.326;10.356;2022-09-03T20:39:07;21.10;63.90
7046;DHT22;3564;53.326;10.356;2022-09-03T20:42:10;21.10;63.80
7046;DHT22;3564;53.326;10.356;2022-09-03T20:48:11;21.00;64.70
7046;DHT22;3564;53.326;10.356;2022-09-03T20:50:53;20.90;65.00
7046;DHT22;3564;53.326;10.356;2022-09-03T20:59:13;20.70;65.80
7046;DHT22;3564;53.326;10.356;2022-09-03T21:02:22;20.60;65.10
7046;DHT22;3564;53.326;10.356;2022-09-03T21:05:46;20.60;65.40
7046;DHT22;3564;53.326;10.356;2022-09-03T21:10:52;20.50;66.20
7046;DHT22;3564;53.326;10.356;2022-09-03T21:16:21;20.50;65.50
7046;DHT22;3564;53.326;10.356;2022-09-03T21:19:19;20.50;65.80
7046;DHT22;3564;53.326;10.356;2022-09-03T21:24:32;20.50;66.00
7046;DHT22;3564;53.326;10.356;2022-09-03T21:27:06;20.50;66.00
7046;DHT22;3564;53.326;10.356;2022-09-03T21:32:12;20.30;66.90
7046;DHT22;3564;53.326;10.356;2022-09-03T21:37:23;20.20;67.30
7046;DHT22;3564;53.326;10.356;2022-09-03T21:39:55;20.10;67.40
7046;DHT22;3564;53.326;10.356;2022-09-03T21:42:41;20.10;67.50
7046;DHT22;3564;53.326;10.356;2022-09-03T21:48:04;19.80;68.30
7046;DHT22;3564;53.326;10.356;2022-09-03T21:50:53;19.70;68.30
7046;DHT22;3564;53.326;10.356;2022-09-03T21:56:37;19.70;68.30
7046;DHT22;3564;53.326;10.356;2022-09-03T22:02:05;19.50;68.40
7046;DHT22;3564;53.326;10.356;2022-09-03T22:04:34;19.50;69.20
7046;DHT22;3564;53.326;10.356;2022-09-03T22:12:55;19.30;69.50
7046;DHT22;3564;53.326;10.356;2022-09-03T22:15:25;19.30;70.40
7046;DHT22;3564;53.326;10.356;2022-09-03T22:18:17;19.20;70.50
7046;DHT22;3564;53.326;10.356;2022-09-03T22:20:54;19.20;71.00
7046;DHT22;3564;53.326;10.356;2022-09-03T22:23:40;19.20;71.00
7046;DHT22;3564;53.326;10.356;2022-09-03T22:26:27;19.20;71.50